Time;durP1;ratioP1;P1;durP2;ratioP2;P2;SDS_P1;SDS_P2;PMS_P1;PMS_P2;Temp;Humidity;BMP_temperature;BMP_pressure;BME280_temperature;BME280_humidity;BME280_pressure;Samples;Min_cycle;Max_cycle;Signal;HPM_P1;HPM_P2
2022/11/09 00:00:43;;;;;;;5.80;1.63;;;;;;;14.79;69.27;100269.56;3575424;40;20067;-62
2022/11/09 00:03:10;;;;;;;6.10;2.15;;;;;;;14.78;70.01;100262.41;3577220;40;20387;-62
2022/11/09 00:05:37;;;;;;;5.97;1.98;;;;;;;14.76;69.57;100265.28;3576853;40;20048;-61
2022/11/09 00:08:10;;;;;;;3.97;2.10;;;;;;;14.73;69.62;100270.09;3579435;40;20056;-61
2022/11/09 00:10:37;;;;;;;3.63;1.95;;;;;;;14.70;69.97;100270.38;3576297;40;20048;-61
2022/11/09 00:13:04;;;;;;;5.00;1.83;;;;;;;14.66;70.49;100260.81;3578073;40;20068;-62
2022/11/09 00:15:30;;;;;;;3.55;1.73;;;;;;;14.66;70.50;100258.13;3578674;40;20133;-61
2022/11/09 00:18:01;;;;;;;3.53;2.13;;;;;;;14.67;70.76;100259.81;3580499;40;20060;-61
2022/11/09 00:20:27;;;;;;;5.35;2.08;;;;;;;14.68;70.34;100253.41;3577511;40;20080;-61
2022/11/09 00:22:52;;;;;;;3.78;1.92;;;;;;;14.69;70.58;100263.25;3577400;40;20066;-61
2022/11/09 00:25:18;;;;;;;4.13;2.22;;;;;;;14.69;70.93;100257.84;3577730;40;20169;-61
2022/11/09 00:27:43;;;;;;;4.63;1.95;;;;;;;14.61;71.00;100239.56;3576911;40;20059;-61
2022/11/09 00:30:10;;;;;;;4.55;1.90;;;;;;;14.73;70.75;100264.69;3577100;40;20072;-62
2022/11/09 00:32:36;;;;;;;6.00;2.00;;;;;;;14.75;71.15;100262.72;3576790;40;20060;-61
2022/11/09 00:35:02;;;;;;;5.85;2.30;;;;;;;14.74;71.00;100255.56;3577319;40;20108;-61
2022/11/09 00:37:31;;;;;;;6.75;2.10;;;;;;;14.75;71.13;100260.03;3578558;40;20353;-62
2022/11/09 00:39:56;;;;;;;5.05;1.77;;;;;;;14.75;70.54;100254.59;3577270;40;20068;-61
2022/11/09 00:42:22;;;;;;;3.42;1.65;;;;;;;14.77;70.90;100250.75;3578399;40;20064;-61
2022/11/09 00:44:47;;;;;;;5.22;1.80;;;;;;;14.78;70.92;100251.59;3577740;40;20057;-62
2022/11/09 00:47:13;;;;;;;4.18;2.00;;;;;;;14.79;71.03;100247.91;3577138;40;20051;-62
2022/11/09 00:49:39;;;;;;;4.18;1.60;;;;;;;14.81;70.46;100257.63;3577745;40;20064;-62
2022/11/09 00:52:04;;;;;;;6.43;1.70;;;;;;;14.81;70.37;100254.91;3577082;40;20550;-62
2022/11/09 00:54:30;;;;;;;7.88;1.95;;;;;;;14.86;70.14;100249.09;3578275;40;20093;-61
2022/11/09 00:56:55;;;;;;;5.78;2.00;;;;;;;14.92;69.72;100244.97;3575551;40;20048;-62
2022/11/09 00:59:21;;;;;;;8.48;2.13;;;;;;;14.95;69.72;100234.72;3575121;40;20049;-61
2022/11/09 01:01:46;;;;;;;6.53;1.90;;;;;;;14.96;68.99;100233.72;3579379;40;20174;-62
2022/11/09 01:04:12;;;;;;;5.65;1.75;;;;;;;14.98;69.19;100247.13;3577316;40;20071;-63
2022/11/09 01:06:38;;;;;;;3.15;1.88;;;;;;;14.96;69.15;100254.53;3578399;40;20064;-61
2022/11/09 01:09:03;;;;;;;5.60;1.80;;;;;;;14.76;69.32;100213.03;3578408;40;20402;-61
2022/11/09 01:11:29;;;;;;;5.45;1.88;;;;;;;14.97;68.62;100270.66;3577474;40;20143;-62
2022/11/09 01:13:59;;;;;;;5.70;2.08;;;;;;;14.88;68.64;100238.13;3580133;40;20060;-61
2022/11/09 01:16:25;;;;;;;5.65;1.90;;;;;;;14.97;69.03;100267.94;3578985;40;20051;-61
2022/11/09 01:18:57;;;;;;;7.38;2.05;;;;;;;14.82;69.01;100247.66;3577122;40;20049;-61
2022/11/09 01:21:24;;;;;;;4.07;2.00;;;;;;;14.93;69.05;100268.34;3577379;40;20052;-61
2022/11/09 01:23:49;;;;;;;5.32;1.80;;;;;;;14.93;68.73;100276.44;3578813;40;20071;-62
2022/11/09 01:26:15;;;;;;;4.75;1.98;;;;;;;14.92;68.60;100281.00;3579027;40;20398;-61
2022/11/09 01:28:42;;;;;;;7.53;1.92;;;;;;;14.87;68.64;100275.13;3577775;40;20080;-62
2022/11/09 01:31:19;;;;;;;6.32;1.92;;;;;;;14.91;68.96;100275.75;3578529;40;20282;-61
2022/11/09 01:33:46;;;;;;;6.03;1.70;;;;;;;14.87;68.53;100275.13;3580012;40;20110;-59
2022/11/09 01:36:15;;;;;;;4.38;1.80;;;;;;;14.86;68.38;100276.13;3578398;40;20129;-61
2022/11/09 01:38:42;;;;;;;4.20;1.73;;;;;;;14.83;68.58;100281.81;3579479;40;20067;-61
2022/11/09 01:41:14;;;;;;;7.28;1.67;;;;;;;14.81;69.15;100272.97;3578735;40;20052;-61
2022/11/09 01:43:40;;;;;;;4.45;1.85;;;;;;;14.79;69.01;100278.53;3578333;40;20138;-62
2022/11/09 01:46:23;;;;;;;5.88;1.88;;;;;;;14.65;68.60;100254.53;3580843;40;20048;-61
2022/11/09 01:48:48;;;;;;;6.72;2.00;;;;;;;14.82;69.01;100280.97;3579916;40;20132;-61
2022/11/09 01:51:22;;;;;;;6.03;1.58;;;;;;;14.80;68.63;100290.22;3577982;40;20073;-62
2022/11/09 01:53:56;;;;;;;5.93;2.08;;;;;;;14.79;68.76;100275.81;3577709;40;20325;-61
2022/11/09 01:56:22;;;;;;;5.15;1.50;;;;;;;14.75;68.54;100268.97;3578469;40;20104;-61
2022/11/09 01:59:06;;;;;;;6.32;1.85;;;;;;;14.70;69.02;100256.84;3578995;40;20115;-62
2022/11/09 02:01:34;;;;;;;6.75;1.90;;;;;;;14.55;69.06;100246.38;3576405;40;20056;-61
2022/11/09 02:04:16;;;;;;;4.70;2.00;;;;;;;14.54;68.67;100255.50;3578975;40;20053;-60
2022/11/09 02:06:44;;;;;;;7.43;1.90;;;;;;;14.65;68.87;100273.47;3579018;40;20096;-60
2022/11/09 02:09:38;;;;;;;4.38;1.58;;;;;;;14.60;69.13;100265.78;3579328;40;20064;-61
2022/11/09 02:12:06;;;;;;;7.35;1.98;;;;;;;14.58;68.64;100278.56;3579286;40;20157;-61
2022/11/09 02:14:35;;;;;;;5.18;2.13;;;;;;;14.56;69.13;100279.72;3580161;40;20048;-61
2022/11/09 02:17:01;;;;;;;5.57;1.70;;;;;;;14.52;69.39;100276.38;3580843;40;20145;-61
2022/11/09 02:19:27;;;;;;;4.30;2.05;;;;;;;14.49;69.68;100273.06;3578421;40;20478;-61
2022/11/09 02:21:53;;;;;;;5.47;2.03;;;;;;;14.49;69.50;100275.78;3577163;40;20395;-61
2022/11/09 02:24:18;;;;;;;4.97;1.90;;;;;;;14.53;68.95;100288.09;3576172;40;20494;-59
2022/11/09 02:26:51;;;;;;;7.82;2.08;;;;;;;14.52;69.50;100284.50;3577788;40;20072;-60
2022/11/09 02:29:25;;;;;;;6.53;2.13;;;;;;;14.51;69.17;100282.81;3577775;40;20052;-61
2022/11/09 02:32:00;;;;;;;4.88;1.67;;;;;;;14.52;69.15;100294.47;3579632;40;20053;-59
2022/11/09 02:34:26;;;;;;;5.78;2.08;;;;;;;14.54;69.13;100306.88;3577223;40;20063;-59
2022/11/09 02:36:51;;;;;;;6.75;1.98;;;;;;;14.54;69.20;100303.31;3579981;40;20059;-61
2022/11/09 02:39:24;;;;;;;6.65;2.00;;;;;;;14.57;68.62;100301.19;3577014;40;20492;-61
2022/11/09 02:42:13;;;;;;;6.50;1.75;;;;;;;14.58;68.17;100283.97;3578927;40;20052;-61
2022/11/09 02:44:48;;;;;;;8.27;1.80;;;;;;;14.58;68.44;100272.28;3577810;40;20060;-62
2022/11/09 02:47:13;;;;;;;8.00;1.85;;;;;;;14.64;67.90;100269.06;3580428;40;20055;-61
2022/11/09 02:49:39;;;;;;;7.05;1.95;;;;;;;14.67;67.26;100270.66;3576617;40;20060;-62
2022/11/09 02:52:05;;;;;;;6.72;2.00;;;;;;;14.72;67.06;100276.53;3576663;40;20294;-62
2022/11/09 02:54:30;;;;;;;7.25;2.08;;;;;;;14.73;66.96;100270.09;3580441;40;20057;-61
2022/11/09 02:56:56;;;;;;;5.32;1.55;;;;;;;14.80;66.25;100249.63;3578120;40;20056;-61
2022/11/09 02:59:22;;;;;;;6.70;1.80;;;;;;;14.46;66.58;100179.56;3580550;40;20064;-60
2022/11/09 03:01:47;;;;;;;5.97;2.03;;;;;;;14.83;66.42;100255.63;3577143;40;20291;-60
2022/11/09 03:04:13;;;;;;;6.80;1.70;;;;;;;14.82;66.82;100258.47;3577731;40;20057;-61
2022/11/09 03:06:38;;;;;;;7.35;1.80;;;;;;;14.81;67.04;100272.97;3578236;40;20056;-60
2022/11/09 03:09:10;;;;;;;7.93;2.17;;;;;;;14.78;67.62;100270.53;3577827;40;20399;-61
2022/11/09 03:11:38;;;;;;;7.82;2.03;;;;;;;14.74;68.00;100282.63;3579870;40;20064;-61
2022/11/09 03:14:04;;;;;;;6.45;1.77;;;;;;;14.69;67.83;100303.84;3579715;40;20137;-61
2022/11/09 03:16:30;;;;;;;5.53;1.80;;;;;;;14.67;68.73;100297.69;3576842;40;20137;-61
2022/11/09 03:18:57;;;;;;;8.68;2.45;;;;;;;14.58;68.48;100294.78;3580080;40;20064;-61
2022/11/09 03:21:23;;;;;;;10.10;1.80;;;;;;;14.52;68.71;100305.28;3580757;40;20066;-61
2022/11/09 03:23:50;;;;;;;8.93;2.60;;;;;;;14.56;68.91;100313.03;3579082;40;20052;-60
2022/11/09 03:26:16;;;;;;;9.05;2.20;;;;;;;14.54;68.54;100319.53;3579184;40;20052;-60
2022/11/09 03:28:41;;;;;;;7.03;1.73;;;;;;;14.52;68.82;100313.41;3579070;40;20060;-61
2022/11/09 03:31:08;;;;;;;9.18;2.28;;;;;;;14.52;69.06;100322.38;3579110;40;20068;-61
2022/11/09 03:33:34;;;;;;;6.47;2.40;;;;;;;14.52;68.79;100316.97;3579300;40;20059;-60
2022/11/09 03:35:59;;;;;;;6.13;2.08;;;;;;;14.50;69.46;100315.38;3578093;40;20075;-61
2022/11/09 03:38:25;;;;;;;8.55;2.10;;;;;;;14.49;69.11;100317.19;3580809;40;20052;-61
2022/11/09 03:40:51;;;;;;;7.47;2.10;;;;;;;14.47;69.07;100327.31;3576131;40;20406;-61
2022/11/09 03:43:16;;;;;;;9.60;2.05;;;;;;;14.44;69.44;100319.47;3579344;40;20056;-61
2022/11/09 03:45:42;;;;;;;7.38;2.53;;;;;;;14.47;69.78;100331.84;3569198;40;20072;-61
2022/11/09 03:48:08;;;;;;;7.25;2.17;;;;;;;14.44;69.95;100335.69;3578769;40;20057;-61
2022/11/09 03:50:39;;;;;;;8.20;2.90;;;;;;;14.44;69.93;100332.97;3578732;40;20052;-61
2022/11/09 03:53:08;;;;;;;7.45;2.08;;;;;;;14.43;70.03;100339.38;3576295;40;20058;-61
2022/11/09 03:55:34;;;;;;;9.70;2.25;;;;;;;14.41;70.36;100346.75;3575635;40;20086;-61
2022/11/09 03:58:01;;;;;;;6.45;1.80;;;;;;;14.39;70.33;100348.72;3577448;40;20056;-61
2022/11/09 04:00:27;;;;;;;9.52;2.30;;;;;;;14.38;70.03;100350.56;3577640;40;20126;-61
2022/11/09 04:02:52;;;;;;;8.00;1.95;;;;;;;14.35;70.41;100342.72;3578884;40;20100;-60
2022/11/09 04:05:18;;;;;;;6.18;2.03;;;;;;;14.32;70.84;100352.94;3578652;40;20071;-63
2022/11/09 04:07:51;;;;;;;8.30;1.95;;;;;;;14.28;70.60;100356.91;3577372;40;20188;-61
2022/11/09 04:10:18;;;;;;;4.88;1.88;;;;;;;14.16;71.09;100348.84;3578179;40;20056;-61
2022/11/09 04:12:44;;;;;;;6.93;1.88;;;;;;;14.11;71.18;100355.63;3578993;40;20052;-61
2022/11/09 04:15:12;;;;;;;12.27;2.63;;;;;;;14.09;71.77;100366.56;3579303;40;20052;-60
2022/11/09 04:17:38;;;;;;;9.40;2.03;;;;;;;14.03;71.48;100361.69;3577480;40;20078;-61
2022/11/09 04:20:06;;;;;;;5.43;1.70;;;;;;;14.00;71.68;100367.34;3576899;40;20417;-62
2022/11/09 04:22:33;;;;;;;8.90;1.92;;;;;;;13.97;71.96;100370.28;3578906;40;20052;-62
2022/11/09 04:24:58;;;;;;;8.57;1.90;;;;;;;13.96;71.69;100374.00;3576021;40;20059;-62
2022/11/09 04:27:24;;;;;;;7.45;1.52;;;;;;;13.96;72.20;100378.53;3578235;40;20402;-62
2022/11/09 04:29:49;;;;;;;6.35;1.75;;;;;;;13.92;72.14;100377.91;3577966;40;20052;-62
2022/11/09 04:32:15;;;;;;;7.80;2.00;;;;;;;13.90;72.27;100386.16;3577110;40;20064;-61
2022/11/09 04:34:41;;;;;;;10.93;2.17;;;;;;;13.92;72.03;100386.03;3578290;40;20080;-62
2022/11/09 04:37:08;;;;;;;8.45;2.17;;;;;;;13.94;72.34;100392.16;3572885;40;20300;-62
2022/11/09 04:39:33;;;;;;;8.98;2.25;;;;;;;13.97;72.34;100391.91;3568145;40;20141;-62
2022/11/09 04:42:01;;;;;;;7.95;2.08;;;;;;;13.99;72.24;100389.09;3578712;40;20869;-62
2022/11/09 04:44:28;;;;;;;8.60;2.30;;;;;;;14.00;71.93;100391.66;3572273;40;20056;-61
2022/11/09 04:46:54;;;;;;;7.97;2.80;;;;;;;14.00;71.67;100397.06;3577232;40;20155;-61
2022/11/09 04:49:20;;;;;;;5.82;2.20;;;;;;;13.99;71.96;100395.34;3578655;40;20053;-62
2022/11/09 04:51:46;;;;;;;10.65;2.40;;;;;;;14.02;71.73;100399.63;3578686;40;20056;-61
2022/11/09 04:54:12;;;;;;;8.15;2.17;;;;;;;14.03;71.85;100395.97;3579973;40;20102;-62
2022/11/09 04:56:38;;;;;;;13.02;2.15;;;;;;;13.99;72.52;100402.63;3579589;40;20276;-62
2022/11/09 04:59:03;;;;;;;8.70;2.13;;;;;;;13.99;71.99;100389.94;3579798;40;20060;-62
2022/11/09 05:01:29;;;;;;;9.50;2.10;;;;;;;13.94;72.47;100390.31;3578162;40;20070;-62
2022/11/09 05:03:55;;;;;;;10.80;2.35;;;;;;;13.97;72.22;100386.50;3579678;40;20370;-62
2022/11/09 05:06:32;;;;;;;8.52;1.85;;;;;;;13.87;72.42;100385.56;3579830;40;20376;-62
2022/11/09 05:09:05;;;;;;;7.03;1.95;;;;;;;13.88;72.39;100387.28;3577614;40;20055;-61
2022/11/09 05:11:33;;;;;;;7.67;1.90;;;;;;;13.86;72.50;100398.22;3580254;40;20383;-61
2022/11/09 05:14:00;;;;;;;7.30;2.10;;;;;;;13.82;72.88;100385.06;3578829;40;20081;-62
2022/11/09 05:16:28;;;;;;;10.98;2.42;;;;;;;13.76;73.02;100383.72;3582167;40;20052;-61
2022/11/09 05:18:54;;;;;;;8.45;2.13;;;;;;;13.70;72.92;100390.50;3580618;40;20048;-62
2022/11/09 05:21:20;;;;;;;7.30;1.80;;;;;;;13.69;73.04;100382.53;3581683;40;20055;-62
2022/11/09 05:23:58;;;;;;;9.75;2.42;;;;;;;13.64;72.89;100368.56;3579184;40;20692;-63
2022/11/09 05:26:39;;;;;;;8.77;2.10;;;;;;;13.64;73.66;100380.22;3577529;40;20048;-62
2022/11/09 05:29:09;;;;;;;9.93;3.53;;;;;;;13.63;73.26;100383.03;3578668;40;20064;-62
2022/11/09 05:31:37;;;;;;;12.75;4.72;;;;;;;13.59;73.73;100387.81;3578323;40;20129;-62
2022/11/09 05:34:05;;;;;;;7.50;2.85;;;;;;;13.57;73.58;100388.91;3576671;40;20064;-61
2022/11/09 05:36:34;;;;;;;6.68;2.08;;;;;;;13.48;73.69;100374.34;3579711;40;20344;-62
2022/11/09 05:39:00;;;;;;;11.55;2.67;;;;;;;13.42;73.87;100375.69;3578263;40;20375;-62
2022/11/09 05:41:26;;;;;;;8.20;2.40;;;;;;;13.49;73.77;100391.41;3581246;40;20071;-62
2022/11/09 05:43:52;;;;;;;7.70;1.80;;;;;;;13.42;73.95;100380.25;3580777;40;20088;-62
2022/11/09 05:46:18;;;;;;;14.30;2.65;;;;;;;13.44;74.34;100389.91;3579622;40;20111;-62
2022/11/09 05:48:45;;;;;;;10.30;2.30;;;;;;;13.41;73.91;100373.97;3577877;40;20052;-62
2022/11/09 05:51:14;;;;;;;8.52;2.20;;;;;;;13.48;73.70;100385.16;3581014;40;20320;-63
2022/11/09 05:53:39;;;;;;;10.93;2.15;;;;;;;13.51;73.53;100392.13;3577444;40;20064;-63
2022/11/09 05:56:11;;;;;;;8.02;2.30;;;;;;;13.50;73.41;100391.25;3578042;40;20103;-62
2022/11/09 05:58:37;;;;;;;7.20;1.70;;;;;;;13.50;73.42;100393.97;3581522;40;20048;-62
2022/11/09 06:01:14;;;;;;;12.52;2.35;;;;;;;13.48;73.61;100382.44;3578117;40;20060;-62
2022/11/09 06:03:42;;;;;;;8.15;2.05;;;;;;;13.29;74.04;100355.19;3580595;40;20391;-63
2022/11/09 06:06:14;;;;;;;10.02;2.33;;;;;;;13.48;73.83;100395.94;3579990;40;20057;-62
2022/11/09 06:08:40;;;;;;;10.45;2.22;;;;;;;13.47;74.06;100392.38;3580065;40;20059;-63
2022/11/09 06:11:11;;;;;;;9.88;2.15;;;;;;;13.47;73.98;100388.81;3579482;40;20072;-62
2022/11/09 06:13:37;;;;;;;7.68;1.98;;;;;;;13.46;74.11;100393.34;3578092;40;20092;-62
2022/11/09 06:16:05;;;;;;;10.40;2.03;;;;;;;13.44;74.22;100395.31;3577395;40;20064;-62
2022/11/09 06:18:34;;;;;;;7.40;1.92;;;;;;;13.44;74.41;100397.16;3567783;40;20422;-62
2022/11/09 06:21:02;;;;;;;11.45;2.47;;;;;;;13.42;73.93;100396.44;3579018;40;20057;-62
2022/11/09 06:23:29;;;;;;;11.63;2.95;;;;;;;13.32;74.23;100390.03;3580339;40;20048;-62
2022/11/09 06:26:07;;;;;;;9.18;2.20;;;;;;;13.39;74.82;100407.50;3579686;40;20059;-62
2022/11/09 06:28:33;;;;;;;9.27;2.28;;;;;;;13.36;74.63;100405.88;3579812;40;20060;-63
2022/11/09 06:31:01;;;;;;;6.25;1.63;;;;;;;13.35;74.77;100412.28;3577774;40;20375;-62
2022/11/09 06:33:31;;;;;;;8.88;2.45;;;;;;;13.34;74.99;100405.13;3580826;40;20438;-62
2022/11/09 06:35:58;;;;;;;7.95;1.80;;;;;;;13.30;74.99;100410.91;3576984;40;20048;-62
2022/11/09 06:38:27;;;;;;;8.40;2.20;;;;;;;13.31;74.98;100404.53;3576742;40;20053;-62
2022/11/09 06:40:57;;;;;;;11.05;2.60;;;;;;;13.19;75.03;100391.03;3578463;40;20121;-62
2022/11/09 06:43:24;;;;;;;10.52;2.13;;;;;;;13.35;75.13;100422.19;3577707;40;20401;-62
2022/11/09 06:45:50;;;;;;;7.03;1.85;;;;;;;13.36;75.19;100418.53;3578940;40;20044;-62
2022/11/09 06:48:16;;;;;;;13.20;2.40;;;;;;;13.22;75.11;100401.56;3579603;40;20391;-62
2022/11/09 06:50:42;;;;;;;11.23;2.50;;;;;;;13.33;75.11;100419.63;3579984;40;20052;-63
2022/11/09 06:53:12;;;;;;;9.85;2.50;;;;;;;13.33;75.40;100424.19;3579494;40;20059;-62
2022/11/09 06:55:39;;;;;;;13.23;3.35;;;;;;;13.27;75.37;100425.50;3578969;40;20052;-62
2022/11/09 06:58:16;;;;;;;9.43;2.30;;;;;;;13.29;75.28;100428.06;3576517;40;20062;-62
2022/11/09 07:00:44;;;;;;;9.95;2.67;;;;;;;13.26;75.35;100433.72;3576424;40;20344;-62
2022/11/09 07:03:18;;;;;;;12.07;2.35;;;;;;;13.22;75.69;100428.56;3579227;40;20059;-62
2022/11/09 07:05:45;;;;;;;10.85;2.25;;;;;;;13.22;75.27;100433.97;3578094;40;20061;-62
2022/11/09 07:08:12;;;;;;;7.28;2.10;;;;;;;13.26;75.46;100428.31;3578708;40;20064;-62
2022/11/09 07:10:38;;;;;;;7.85;2.00;;;;;;;13.23;75.26;100443.78;3580095;40;20314;-61
2022/11/09 07:13:06;;;;;;;7.22;2.17;;;;;;;13.24;75.44;100436.53;3577925;40;20101;-62
2022/11/09 07:15:34;;;;;;;9.10;2.63;;;;;;;13.28;74.99;100437.16;3578052;40;20267;-62
2022/11/09 07:18:03;;;;;;;7.68;2.30;;;;;;;13.28;75.20;100442.56;3576286;40;20067;-61
2022/11/09 07:20:29;;;;;;;11.95;2.58;;;;;;;13.29;75.28;100446.97;3578749;40;20299;-62
2022/11/09 07:22:55;;;;;;;9.70;2.42;;;;;;;13.29;75.23;100449.69;3575843;40;20063;-62
2022/11/09 07:25:21;;;;;;;8.35;2.25;;;;;;;13.30;75.08;100446.00;3575532;40;20052;-62
2022/11/09 07:27:47;;;;;;;9.57;2.30;;;;;;;13.31;75.26;100453.13;3577657;40;20056;-62
2022/11/09 07:30:13;;;;;;;10.18;1.83;;;;;;;13.28;75.08;100456.06;3577868;40;20094;-62
2022/11/09 07:32:39;;;;;;;8.95;2.17;;;;;;;13.29;74.85;100460.47;3577782;40;20075;-62
2022/11/09 07:35:07;;;;;;;10.18;2.75;;;;;;;13.34;74.98;100463.69;3578617;40;20064;-63
2022/11/09 07:37:33;;;;;;;6.32;1.98;;;;;;;13.38;74.93;100462.44;3578891;40;20060;-62
2022/11/09 07:39:58;;;;;;;7.10;2.20;;;;;;;13.39;74.76;100456.09;3575448;40;20437;-62
2022/11/09 07:42:24;;;;;;;9.13;2.35;;;;;;;13.33;74.69;100445.78;3576813;40;20157;-62
2022/11/09 07:44:50;;;;;;;8.77;2.60;;;;;;;13.43;73.99;100452.16;3576075;40;20064;-61
2022/11/09 07:47:18;;;;;;;11.88;2.53;;;;;;;13.46;74.06;100454.59;3574762;40;20332;-61
2022/11/09 07:49:45;;;;;;;9.38;2.33;;;;;;;13.43;74.23;100442.19;3578961;40;20053;-61
2022/11/09 07:52:11;;;;;;;9.73;2.13;;;;;;;13.60;74.10;100458.88;3575438;40;20122;-60
2022/11/09 07:54:38;;;;;;;5.57;1.80;;;;;;;13.62;73.53;100449.69;3577759;40;20088;-61
2022/11/09 07:57:05;;;;;;;8.82;2.25;;;;;;;13.75;73.19;100467.59;3575187;40;20079;-61
2022/11/09 07:59:31;;;;;;;5.75;1.92;;;;;;;13.76;73.45;100474.72;3579580;40;20071;-61
2022/11/09 08:01:58;;;;;;;7.63;2.10;;;;;;;13.80;72.73;100468.09;3575637;40;20097;-60
2022/11/09 08:04:24;;;;;;;11.52;2.28;;;;;;;13.84;72.72;100474.97;3580727;40;20121;-60
2022/11/09 08:06:53;;;;;;;8.73;2.15;;;;;;;13.82;72.60;100468.81;3576913;40;20064;-60
2022/11/09 08:09:19;;;;;;;6.70;2.10;;;;;;;13.86;72.63;100484.69;3577033;40;20109;-60
2022/11/09 08:11:45;;;;;;;7.20;2.30;;;;;;;13.85;73.04;100477.53;3575991;40;20437;-60
2022/11/09 08:14:11;;;;;;;12.38;2.63;;;;;;;13.88;72.54;100484.53;3581403;40;20068;-60
2022/11/09 08:16:38;;;;;;;7.55;1.95;;;;;;;13.85;72.48;100482.09;3580254;40;20091;-61
2022/11/09 08:19:04;;;;;;;10.35;2.10;;;;;;;13.82;72.44;100487.72;3578353;40;20141;-59
2022/11/09 08:21:30;;;;;;;11.13;2.53;;;;;;;13.88;72.60;100484.53;3580035;40;20059;-60
2022/11/09 08:23:55;;;;;;;6.97;2.03;;;;;;;13.85;71.92;100490.19;3577692;40;20040;-59
2022/11/09 08:26:21;;;;;;;8.93;2.03;;;;;;;13.70;72.71;100481.47;3576876;40;20060;-60
2022/11/09 08:28:46;;;;;;;6.07;1.75;;;;;;;13.86;72.60;100503.59;3579467;40;20052;-61
2022/11/09 08:31:12;;;;;;;6.35;1.80;;;;;;;13.90;72.77;100499.66;3578912;40;20060;-61
2022/11/09 08:33:40;;;;;;;8.35;2.35;;;;;;;13.82;72.44;100483.19;3580740;40;20276;-59
2022/11/09 08:36:12;;;;;;;9.65;2.40;;;;;;;14.01;72.25;100506.88;3579043;40;20130;-61
2022/11/09 08:38:39;;;;;;;10.30;2.22;;;;;;;14.10;71.48;100507.97;3580337;40;20100;-61
2022/11/09 08:41:05;;;;;;;8.45;2.40;;;;;;;14.21;70.80;100509.78;3580203;40;20049;-60
2022/11/09 08:43:31;;;;;;;6.00;1.90;;;;;;;14.26;70.92;100515.69;3578330;40;20052;-60
2022/11/09 08:45:56;;;;;;;7.05;2.03;;;;;;;14.35;70.56;100514.94;3577949;40;20064;-60
2022/11/09 08:48:22;;;;;;;8.80;1.98;;;;;;;14.48;69.93;100509.34;3581263;40;20107;-61
2022/11/09 08:51:01;;;;;;;8.95;2.55;;;;;;;14.63;69.20;100503.56;3580547;40;20295;-61
2022/11/09 08:53:28;;;;;;;8.75;2.20;;;;;;;14.82;68.97;100505.56;3581405;40;20096;-59
2022/11/09 08:55:54;;;;;;;8.88;2.50;;;;;;;15.04;67.95;100507.31;3578831;40;20266;-61
2022/11/09 08:58:21;;;;;;;7.13;1.80;;;;;;;15.27;67.89;100512.59;3577256;40;20391;-61
2022/11/09 09:00:47;;;;;;;7.93;1.88;;;;;;;15.34;66.01;100519.19;3577002;40;20080;-60
2022/11/09 09:03:12;;;;;;;9.95;2.28;;;;;;;15.33;65.47;100504.78;3576354;40;20072;-61
2022/11/09 09:05:38;;;;;;;8.48;2.20;;;;;;;15.41;65.82;100504.09;3581248;40;20084;-61
2022/11/09 09:08:06;;;;;;;5.47;2.00;;;;;;;15.54;65.30;100529.16;3579485;40;20064;-59
2022/11/09 09:10:34;;;;;;;7.80;1.95;;;;;;;15.66;64.77;100518.22;3580564;40;20083;-60
2022/11/09 09:13:01;;;;;;;8.25;2.10;;;;;;;15.72;64.61;100513.16;3579504;40;20076;-61
2022/11/09 09:15:27;;;;;;;6.35;1.88;;;;;;;15.75;64.13;100518.28;3581008;40;20060;-60
2022/11/09 09:17:52;;;;;;;6.88;2.03;;;;;;;15.75;63.70;100520.16;3579828;40;20095;-60
2022/11/09 09:20:18;;;;;;;7.65;2.40;;;;;;;15.85;63.75;100515.63;3580431;40;20129;-60
2022/11/09 09:22:43;;;;;;;9.57;2.33;;;;;;;15.90;62.85;100521.50;3578229;40;20056;-61
2022/11/09 09:25:09;;;;;;;11.25;2.20;;;;;;;15.83;62.81;100514.06;3579150;40;20071;-60
2022/11/09 09:27:35;;;;;;;8.95;2.15;;;;;;;15.84;63.77;100535.59;3579059;40;20052;-61
2022/11/09 09:30:02;;;;;;;7.18;2.08;;;;;;;15.65;62.98;100514.66;3578560;40;20064;-59
2022/11/09 09:32:28;;;;;;;10.20;2.15;;;;;;;15.65;63.45;100533.63;3576741;40;20079;-60
2022/11/09 09:34:54;;;;;;;8.10;2.28;;;;;;;15.76;63.14;100538.13;3575221;40;20063;-61
2022/11/09 09:37:20;;;;;;;10.73;2.65;;;;;;;15.68;63.23;100543.38;3577276;40;20060;-59
2022/11/09 09:39:46;;;;;;;6.43;2.20;;;;;;;15.73;63.39;100546.50;3574508;40;20126;-61
2022/11/09 09:42:21;;;;;;;7.75;2.20;;;;;;;15.82;62.93;100540.28;3580058;40;20057;-61
2022/11/09 09:45:06;;;;;;;7.00;1.85;;;;;;;15.90;62.88;100540.47;3577148;40;20056;-61
2022/11/09 09:47:55;;;;;;;9.45;2.15;;;;;;;15.94;61.87;100541.91;3576921;40;20103;-61
2022/11/09 09:50:30;;;;;;;6.65;1.98;;;;;;;15.99;61.96;100541.53;3578817;40;20056;-60
2022/11/09 09:53:15;;;;;;;9.38;1.83;;;;;;;16.11;61.81;100544.97;3580329;40;20053;-61
2022/11/09 09:55:51;;;;;;;7.35;1.85;;;;;;;16.24;61.80;100551.88;3577627;40;20056;-60
2022/11/09 09:58:26;;;;;;;6.07;2.28;;;;;;;16.24;60.08;100532.91;3579131;40;20396;-60
2022/11/09 10:01:02;;;;;;;10.40;2.17;;;;;;;16.55;60.05;100575.34;3578042;40;20052;-61
2022/11/09 10:03:28;;;;;;;7.95;1.83;;;;;;;16.51;59.88;100566.66;3578519;40;20378;-61
2022/11/09 10:06:30;;;;;;;9.18;2.30;;;;;;;16.68;60.18;100562.38;3578385;40;20056;-60
2022/11/09 10:09:44;;;;;;;13.07;2.28;;;;;;;16.75;58.77;100565.41;3567333;40;20054;-60
2022/11/09 10:12:21;;;;;;;7.70;1.98;;;;;;;17.03;58.34;100569.16;3580630;40;20048;-60
2022/11/09 10:15:24;;;;;;;10.45;2.13;;;;;;;17.10;58.53;100565.75;3579340;40;20056;-60
2022/11/09 10:18:19;;;;;;;12.27;2.22;;;;;;;17.27;57.29;100566.88;3578697;40;20121;-61
2022/11/09 10:20:51;;;;;;;7.03;1.70;;;;;;;17.23;57.30;100562.72;3579956;40;20062;-60
2022/11/09 10:23:39;;;;;;;7.28;1.90;;;;;;;17.32;56.21;100567.31;3577695;40;20403;-61
2022/11/09 10:26:48;;;;;;;7.30;1.73;;;;;;;17.39;56.59;100573.88;3579579;40;20056;-60
2022/11/09 10:29:47;;;;;;;8.05;2.00;;;;;;;17.63;54.94;100572.50;3575441;40;20052;-61
2022/11/09 10:32:22;;;;;;;4.85;1.63;;;;;;;17.63;54.38;100572.50;3576106;40;20041;-60
2022/11/09 10:35:23;;;;;;;7.13;1.63;;;;;;;17.44;54.40;100580.72;3578219;40;20052;-60
2022/11/09 10:37:51;;;;;;;7.18;1.65;;;;;;;17.47;55.07;100583.13;3577803;40;20068;-61
2022/11/09 10:40:33;;;;;;;8.30;1.88;;;;;;;17.42;55.05;100574.59;3575103;40;20068;-60
2022/11/09 10:43:07;;;;;;;9.43;1.73;;;;;;;17.39;55.49;100575.72;3576354;40;20067;-61
2022/11/09 10:45:42;;;;;;;7.22;2.00;;;;;;;17.30;55.66;100588.31;3578431;40;20060;-60
2022/11/09 10:48:12;;;;;;;7.05;1.73;;;;;;;17.31;55.43;100590.00;3577781;40;21488;-61
2022/11/09 10:50:46;;;;;;;8.13;2.00;;;;;;;17.26;55.72;100602.34;3579573;40;20122;-60
2022/11/09 10:53:22;;;;;;;6.18;1.67;;;;;;;17.12;56.26;100607.19;3578074;40;20055;-60
2022/11/09 10:56:14;;;;;;;5.82;1.92;;;;;;;16.89;55.69;100606.59;3576505;40;20362;-61
2022/11/09 10:58:50;;;;;;;6.25;1.50;;;;;;;16.79;57.08;100594.88;3577391;40;20061;-61
2022/11/09 11:01:21;;;;;;;6.07;1.65;;;;;;;16.46;56.70;100572.50;3577940;40;20064;-60
2022/11/09 11:03:56;;;;;;;7.22;1.90;;;;;;;16.47;57.74;100590.50;3579067;40;20427;-61
2022/11/09 11:06:21;;;;;;;6.43;1.58;;;;;;;16.53;58.41;100604.50;3578427;40;20064;-60
2022/11/09 11:09:11;;;;;;;8.13;1.95;;;;;;;16.46;57.53;100599.63;3577820;40;20069;-61
2022/11/09 11:11:38;;;;;;;8.48;2.05;;;;;;;16.18;56.87;100571.41;3579104;40;20429;-61
2022/11/09 11:14:18;;;;;;;7.75;1.98;;;;;;;16.25;58.15;100607.84;3576705;40;20314;-57
2022/11/09 11:16:46;;;;;;;8.27;1.90;;;;;;;16.11;58.19;100593.78;3576835;40;20060;-61
2022/11/09 11:19:35;;;;;;;6.78;1.60;;;;;;;16.10;59.03;100606.47;3577074;40;20175;-60
2022/11/09 11:22:10;;;;;;;7.82;1.83;;;;;;;16.01;58.60;100615.44;3576194;40;20334;-61
2022/11/09 11:25:01;;;;;;;10.68;1.90;;;;;;;15.90;58.60;100616.38;3579054;40;20083;-61
2022/11/09 11:27:39;;;;;;;8.35;1.70;;;;;;;15.90;58.80;100613.66;3579797;40;20048;-61
2022/11/09 11:30:18;;;;;;;7.45;1.70;;;;;;;15.86;59.67;100623.06;3577262;40;20412;-61
2022/11/09 11:32:45;;;;;;;7.10;1.85;;;;;;;15.82;58.23;100610.75;3575399;40;20052;-61
2022/11/09 11:35:27;;;;;;;10.10;1.80;;;;;;;15.75;58.53;100621.28;3578474;40;20087;-60